Arago, Minnesota
Current Conditions -  °F | °C
As of 11:53 AM on Friday 19 Dec 2014 (Local Time) from KPKD Reporting Station
Haze Haze  
Wind Chill: -11°   Ceiling: 200
Heat Index: -5°   Visibility: 0.75mi
Dew Point: -6°   Wind: 10mph
Humidity: 92%   Direction: 150°SSE
Pressure: 30.1"   Gusts: NA
Location:  46.9966°N, 95.0029°W
Report Text: KPKD 191753Z AUTO 15009KT 3/4SM BR OVC002 M05/M06 A3010 RMK AO2 SLP218 I1000 I6001 T10501061 11050 21072 58009
Loading
Personal Weather Stations






























Interactive Weather Map New forecast layout! Learn more

10-Day Weather Forecast

Advertisements
Track Severe Weather on mobile